Time;durP1;ratioP1;P1;durP2;ratioP2;P2;SDS_P1;SDS_P2;PMS_P1;PMS_P2;Temp;Humidity;BMP_temperature;BMP_pressure;BME280_temperature;BME280_humidity;BME280_pressure;Samples;Min_cycle;Max_cycle;Signal;HPM_P1;HPM_P2
2022/07/17 00:00:20;;;;;;;2.95;1.98;;;;;;;;;;5023151;28;20053;-86
2022/07/17 00:02:47;;;;;;;3.17;1.92;;;;;;;;;;5019709;28;20428;-85
2022/07/17 00:05:13;;;;;;;5.57;1.70;;;;;;;;;;5006711;28;20041;-85
2022/07/17 00:07:38;;;;;;;9.13;2.03;;;;;;;;;;5005347;28;20053;-87
2022/07/17 00:10:07;;;;;;;5.25;2.47;;;;;;;;;;5026261;28;20025;-84
2022/07/17 00:12:32;;;;;;;5.50;2.38;;;;;;;;;;5026083;28;20478;-86
2022/07/17 00:14:57;;;;;;;6.60;2.90;;;;;;;;;;5007662;28;20036;-86
2022/07/17 00:17:22;;;;;;;5.05;1.83;;;;;;;;;;5025297;28;20045;-86
2022/07/17 00:19:51;;;;;;;4.38;1.70;;;;;;;;;;5005558;28;20108;-86
2022/07/17 00:22:20;;;;;;;5.45;2.42;;;;;;;;;;5004471;28;20029;-84
2022/07/17 00:24:46;;;;;;;5.68;2.72;;;;;;;;;;5006497;28;20045;-84
2022/07/17 00:27:11;;;;;;;4.57;2.80;;;;;;;;;;5021928;28;20065;-84
2022/07/17 00:29:36;;;;;;;8.27;2.83;;;;;;;;;;5002519;28;20088;-86
2022/07/17 00:32:01;;;;;;;7.70;2.88;;;;;;;;;;5018920;28;20029;-87
2022/07/17 00:34:27;;;;;;;8.55;2.92;;;;;;;;;;5006548;28;20075;-85
2022/07/17 00:36:52;;;;;;;3.20;2.45;;;;;;;;;;5019779;28;20588;-86
2022/07/17 00:39:17;;;;;;;3.63;2.17;;;;;;;;;;5006349;28;20029;-86
2022/07/17 00:41:43;;;;;;;4.68;2.42;;;;;;;;;;5004464;28;20025;-85
2022/07/17 00:44:10;;;;;;;5.95;2.47;;;;;;;;;;5021610;28;20037;-87
2022/07/17 00:46:35;;;;;;;3.30;2.15;;;;;;;;;;5004189;28;20064;-86
2022/07/17 00:49:01;;;;;;;6.32;2.50;;;;;;;;;;5026642;28;20053;-86
2022/07/17 00:51:26;;;;;;;6.05;2.25;;;;;;;;;;5020506;28;20029;-87
2022/07/17 00:53:52;;;;;;;6.45;3.15;;;;;;;;;;5004749;28;20041;-86
2022/07/17 00:56:20;;;;;;;11.57;4.30;;;;;;;;;;5005729;28;20136;-86
2022/07/17 00:58:48;;;;;;;6.72;2.80;;;;;;;;;;5007498;28;20031;-84
2022/07/17 01:01:13;;;;;;;10.70;3.17;;;;;;;;;;5005744;28;20021;-88
2022/07/17 01:03:38;;;;;;;10.77;4.00;;;;;;;;;;5005006;28;20099;-84
2022/07/17 01:06:04;;;;;;;9.07;4.45;;;;;;;;;;5004050;28;20029;-86
2022/07/17 01:08:30;;;;;;;8.85;4.55;;;;;;;;;;5004358;28;20068;-85
2022/07/17 01:10:55;;;;;;;10.23;5.45;;;;;;;;;;5001572;28;20041;-86
2022/07/17 01:13:21;;;;;;;8.18;4.35;;;;;;;;;;4999001;28;20030;-87
2022/07/17 01:15:46;;;;;;;8.25;4.47;;;;;;;;;;5001670;28;20401;-86
2022/07/17 01:18:12;;;;;;;8.20;3.83;;;;;;;;;;5000381;28;20036;-87
2022/07/17 01:20:39;;;;;;;10.25;4.40;;;;;;;;;;5001031;28;20033;-86
2022/07/17 01:23:04;;;;;;;11.93;4.53;;;;;;;;;;5004539;28;20066;-86
2022/07/17 01:25:30;;;;;;;9.40;4.25;;;;;;;;;;5006362;28;20148;-84
2022/07/17 01:27:56;;;;;;;8.95;3.60;;;;;;;;;;5001820;28;20041;-84
2022/07/17 01:30:21;;;;;;;5.35;3.65;;;;;;;;;;5007247;28;20030;-86
2022/07/17 01:32:46;;;;;;;9.07;4.60;;;;;;;;;;5003702;28;20034;-86
2022/07/17 01:35:13;;;;;;;12.05;5.03;;;;;;;;;;5005787;28;20030;-86
2022/07/17 01:37:39;;;;;;;6.97;3.63;;;;;;;;;;5002838;28;20030;-86
2022/07/17 01:40:04;;;;;;;7.38;3.30;;;;;;;;;;5004124;28;20026;-86
2022/07/17 01:42:32;;;;;;;6.78;3.30;;;;;;;;;;5004122;28;20030;-86
2022/07/17 01:44:58;;;;;;;15.88;4.68;;;;;;;;;;5007103;28;20053;-88
2022/07/17 01:47:23;;;;;;;9.65;4.03;;;;;;;;;;5020183;28;20165;-86
2022/07/17 01:49:50;;;;;;;9.70;4.55;;;;;;;;;;5006101;28;20041;-85
2022/07/17 01:52:16;;;;;;;9.82;3.75;;;;;;;;;;5005141;28;20042;-84
2022/07/17 01:54:41;;;;;;;9.25;3.45;;;;;;;;;;5001283;28;20052;-84
2022/07/17 01:57:07;;;;;;;5.47;3.80;;;;;;;;;;5020674;28;20112;-85
2022/07/17 01:59:32;;;;;;;9.70;3.45;;;;;;;;;;5004349;28;20022;-85
2022/07/17 02:01:57;;;;;;;11.23;3.70;;;;;;;;;;5004588;28;20045;-86
2022/07/17 02:04:23;;;;;;;8.10;3.60;;;;;;;;;;5005657;28;20377;-86
2022/07/17 02:06:48;;;;;;;9.15;4.70;;;;;;;;;;5019600;28;20046;-84
2022/07/17 02:09:13;;;;;;;7.15;3.05;;;;;;;;;;5007015;28;20049;-87
2022/07/17 02:11:39;;;;;;;6.88;3.58;;;;;;;;;;5004201;28;20497;-87
2022/07/17 02:14:04;;;;;;;8.25;3.15;;;;;;;;;;5002069;28;20034;-84
2022/07/17 02:16:29;;;;;;;6.47;3.08;;;;;;;;;;5004447;28;20049;-84
2022/07/17 02:18:54;;;;;;;4.65;2.78;;;;;;;;;;5021179;28;20033;-86
2022/07/17 02:21:20;;;;;;;13.35;3.38;;;;;;;;;;5007188;28;20108;-84
2022/07/17 02:23:45;;;;;;;4.40;3.13;;;;;;;;;;5005021;28;20541;-87
2022/07/17 02:26:10;;;;;;;7.18;2.90;;;;;;;;;;5005181;28;20042;-86
2022/07/17 02:28:35;;;;;;;7.47;3.35;;;;;;;;;;5001054;28;20359;-86
2022/07/17 02:31:01;;;;;;;5.03;2.67;;;;;;;;;;5005364;28;20038;-85
2022/07/17 02:33:26;;;;;;;6.55;2.95;;;;;;;;;;5014170;28;20562;-86
2022/07/17 02:35:51;;;;;;;10.02;2.70;;;;;;;;;;5003060;28;20029;-84
2022/07/17 02:38:16;;;;;;;5.63;3.00;;;;;;;;;;5003352;28;21374;-84
2022/07/17 02:40:42;;;;;;;11.48;3.30;;;;;;;;;;5003905;28;20105;-84
2022/07/17 02:43:07;;;;;;;7.85;2.67;;;;;;;;;;5018749;28;20018;-86
2022/07/17 02:45:32;;;;;;;8.57;3.25;;;;;;;;;;5003436;28;20108;-85
2022/07/17 02:47:57;;;;;;;4.38;2.10;;;;;;;;;;5018764;28;20030;-85
2022/07/17 02:50:23;;;;;;;4.88;2.40;;;;;;;;;;5004381;28;20034;-86
2022/07/17 02:52:49;;;;;;;3.92;2.80;;;;;;;;;;5015671;28;20044;-86
2022/07/17 02:55:14;;;;;;;10.02;2.83;;;;;;;;;;5003368;28;20410;-87
2022/07/17 02:57:39;;;;;;;4.75;2.80;;;;;;;;;;5001602;28;20026;-87
2022/07/17 03:00:07;;;;;;;5.28;2.72;;;;;;;;;;5001148;28;20881;-88
2022/07/17 03:02:33;;;;;;;3.78;1.95;;;;;;;;;;5001599;28;20034;-85
2022/07/17 03:04:58;;;;;;;4.22;2.20;;;;;;;;;;5005094;28;20022;-84
2022/07/17 03:07:23;;;;;;;12.73;4.07;;;;;;;;;;5018493;28;20041;-84
2022/07/17 03:09:48;;;;;;;5.75;2.20;;;;;;;;;;5018047;28;20040;-86
2022/07/17 03:12:14;;;;;;;5.20;2.70;;;;;;;;;;4999783;28;20036;-84
2022/07/17 03:14:42;;;;;;;6.88;2.60;;;;;;;;;;4997797;28;20033;-85
2022/07/17 03:17:07;;;;;;;5.10;2.60;;;;;;;;;;5000992;28;20022;-86
2022/07/17 03:19:32;;;;;;;9.02;2.97;;;;;;;;;;5003881;28;20072;-85
2022/07/17 03:21:58;;;;;;;6.65;2.80;;;;;;;;;;5008298;28;20374;-86
2022/07/17 03:24:23;;;;;;;4.82;2.70;;;;;;;;;;5000169;28;20032;-86
2022/07/17 03:26:51;;;;;;;4.82;2.50;;;;;;;;;;4999808;28;20049;-86
2022/07/17 03:29:17;;;;;;;7.20;2.60;;;;;;;;;;5017180;28;20033;-86
2022/07/17 03:31:43;;;;;;;8.90;2.97;;;;;;;;;;5005182;28;20032;-86
2022/07/17 03:34:08;;;;;;;10.00;2.50;;;;;;;;;;5004044;28;20026;-86
2022/07/17 03:36:33;;;;;;;3.13;2.28;;;;;;;;;;5004143;28;20393;-86
2022/07/17 03:38:58;;;;;;;5.78;3.03;;;;;;;;;;5005451;28;20044;-86
2022/07/17 03:41:27;;;;;;;3.15;2.22;;;;;;;;;;5002526;28;20029;-85
2022/07/17 03:43:52;;;;;;;5.90;2.63;;;;;;;;;;5016579;28;20037;-86
2022/07/17 03:46:17;;;;;;;4.68;2.58;;;;;;;;;;4998541;28;20513;-86
2022/07/17 03:48:42;;;;;;;6.15;2.95;;;;;;;;;;5017916;28;20482;-84
2022/07/17 03:51:08;;;;;;;6.32;2.70;;;;;;;;;;4998328;28;20022;-86
2022/07/17 03:53:33;;;;;;;4.57;2.38;;;;;;;;;;5003511;28;20044;-86
2022/07/17 03:55:58;;;;;;;3.33;2.15;;;;;;;;;;5000372;28;20029;-84
2022/07/17 03:58:27;;;;;;;5.82;2.58;;;;;;;;;;5000991;28;20034;-84
2022/07/17 04:00:52;;;;;;;2.83;2.35;;;;;;;;;;5005047;28;20037;-86
2022/07/17 04:03:17;;;;;;;6.28;3.22;;;;;;;;;;5002650;28;20033;-85
2022/07/17 04:05:43;;;;;;;3.95;2.40;;;;;;;;;;5013144;28;20088;-84
2022/07/17 04:08:08;;;;;;;6.00;2.88;;;;;;;;;;5004968;28;20417;-84
2022/07/17 04:10:35;;;;;;;8.05;2.53;;;;;;;;;;5001053;28;20505;-85
2022/07/17 04:13:00;;;;;;;6.70;2.58;;;;;;;;;;4997944;28;20470;-84
2022/07/17 04:18:09;;;;;;;5.13;2.65;;;;;;;;;;5003671;28;20555;-85
2022/07/17 04:20:35;;;;;;;7.68;2.58;;;;;;;;;;5002453;28;20030;-85
2022/07/17 04:23:00;;;;;;;4.60;2.33;;;;;;;;;;5003050;28;20018;-85
2022/07/17 04:25:28;;;;;;;8.00;2.30;;;;;;;;;;5007073;28;20029;-84
2022/07/17 04:27:56;;;;;;;5.82;2.42;;;;;;;;;;5017604;28;20060;-85
2022/07/17 04:30:22;;;;;;;4.50;2.45;;;;;;;;;;5002666;28;20603;-85
2022/07/17 04:32:47;;;;;;;7.97;3.47;;;;;;;;;;5000286;28;20037;-85
2022/07/17 04:35:12;;;;;;;5.10;2.38;;;;;;;;;;5002035;28;20190;-84
2022/07/17 04:37:37;;;;;;;4.03;2.50;;;;;;;;;;5015331;28;20049;-84
2022/07/17 04:40:03;;;;;;;4.72;2.42;;;;;;;;;;5003399;28;20682;-84
2022/07/17 04:42:28;;;;;;;5.15;2.72;;;;;;;;;;4999754;28;20030;-84
2022/07/17 04:44:53;;;;;;;9.02;2.63;;;;;;;;;;5019742;28;20396;-85
2022/07/17 04:47:19;;;;;;;4.70;2.75;;;;;;;;;;5006703;28;20540;-84
2022/07/17 04:49:44;;;;;;;6.20;2.75;;;;;;;;;;5003102;28;20773;-84
2022/07/17 04:52:09;;;;;;;4.80;2.08;;;;;;;;;;5007652;28;20417;-84
2022/07/17 04:54:34;;;;;;;6.22;2.72;;;;;;;;;;5008183;28;20056;-84
2022/07/17 04:56:59;;;;;;;5.50;2.88;;;;;;;;;;5007205;28;20034;-85
2022/07/17 04:59:25;;;;;;;4.95;2.42;;;;;;;;;;5003184;28;20033;-84
2022/07/17 05:01:50;;;;;;;6.80;2.70;;;;;;;;;;5006096;28;20034;-84
2022/07/17 05:04:15;;;;;;;4.70;2.60;;;;;;;;;;5000928;28;20021;-84
2022/07/17 05:06:40;;;;;;;6.28;3.00;;;;;;;;;;5002393;28;20076;-84
2022/07/17 05:09:05;;;;;;;8.15;2.92;;;;;;;;;;5004267;28;20387;-85
2022/07/17 05:11:31;;;;;;;6.03;3.28;;;;;;;;;;5021072;28;20030;-85
2022/07/17 05:13:56;;;;;;;6.78;2.90;;;;;;;;;;5019523;28;20438;-83
2022/07/17 05:16:21;;;;;;;8.73;2.97;;;;;;;;;;5018414;28;20111;-84
2022/07/17 05:18:46;;;;;;;4.75;2.35;;;;;;;;;;5002332;28;20052;-84
2022/07/17 05:21:15;;;;;;;8.82;3.13;;;;;;;;;;5022959;28;20700;-84
2022/07/17 05:23:40;;;;;;;3.22;2.55;;;;;;;;;;5024514;28;20022;-84
2022/07/17 05:26:05;;;;;;;8.43;3.28;;;;;;;;;;5019604;28;20029;-84
2022/07/17 05:28:31;;;;;;;7.82;3.05;;;;;;;;;;5021685;28;20436;-84
2022/07/17 05:30:56;;;;;;;5.97;2.50;;;;;;;;;;5020800;28;20029;-84
2022/07/17 05:33:21;;;;;;;6.75;2.90;;;;;;;;;;5005312;28;20022;-85
2022/07/17 05:35:46;;;;;;;7.70;2.70;;;;;;;;;;5019506;28;20056;-85
2022/07/17 05:38:12;;;;;;;8.77;3.15;;;;;;;;;;5008157;28;20017;-84
2022/07/17 05:40:37;;;;;;;7.20;2.65;;;;;;;;;;5008445;28;20022;-84
2022/07/17 05:43:02;;;;;;;7.28;2.92;;;;;;;;;;5012696;28;20091;-84
2022/07/17 05:45:27;;;;;;;8.65;4.13;;;;;;;;;;5004778;28;20029;-84
2022/07/17 05:47:52;;;;;;;4.50;2.17;;;;;;;;;;5017055;28;20033;-83
2022/07/17 05:50:18;;;;;;;4.30;2.50;;;;;;;;;;5020881;28;20021;-84
2022/07/17 05:52:46;;;;;;;6.25;2.45;;;;;;;;;;5022778;28;20778;-83
2022/07/17 05:55:11;;;;;;;3.83;2.25;;;;;;;;;;5019264;28;20079;-86
2022/07/17 05:57:37;;;;;;;3.72;2.50;;;;;;;;;;5019507;28;20358;-86
2022/07/17 06:00:03;;;;;;;7.20;2.50;;;;;;;;;;5021329;28;20018;-85
2022/07/17 06:02:28;;;;;;;3.83;2.17;;;;;;;;;;4999832;28;20060;-83
2022/07/17 06:04:53;;;;;;;3.13;2.70;;;;;;;;;;5018275;28;20044;-83
2022/07/17 06:07:18;;;;;;;7.20;2.78;;;;;;;;;;5021977;28;21904;-83
2022/07/17 06:09:43;;;;;;;5.63;2.40;;;;;;;;;;5003755;28;20033;-84
2022/07/17 06:12:09;;;;;;;4.47;2.30;;;;;;;;;;5005636;28;20037;-84
2022/07/17 06:14:35;;;;;;;4.68;2.42;;;;;;;;;;5006679;28;20144;-82
2022/07/17 06:17:00;;;;;;;3.05;2.20;;;;;;;;;;5003466;28;20497;-82
2022/07/17 06:19:25;;;;;;;5.97;2.57;;;;;;;;;;5023247;28;20036;-84
2022/07/17 06:21:50;;;;;;;5.13;3.03;;;;;;;;;;5020849;28;20289;-85
2022/07/17 06:24:19;;;;;;;6.68;2.35;;;;;;;;;;5004084;28;20037;-84
2022/07/17 06:26:44;;;;;;;8.45;2.95;;;;;;;;;;5022971;28;20032;-85
2022/07/17 06:29:09;;;;;;;7.05;2.40;;;;;;;;;;5020926;28;20021;-85
2022/07/17 06:31:35;;;;;;;3.10;1.95;;;;;;;;;;5022609;28;20029;-86
2022/07/17 06:34:00;;;;;;;3.03;2.20;;;;;;;;;;5022706;28;20021;-84
2022/07/17 06:36:28;;;;;;;4.28;2.05;;;;;;;;;;5010313;28;20029;-84
2022/07/17 06:38:53;;;;;;;5.50;2.55;;;;;;;;;;5025005;28;20029;-83
2022/07/17 06:41:22;;;;;;;5.47;2.60;;;;;;;;;;5022545;28;20168;-84
2022/07/17 06:43:47;;;;;;;7.43;2.40;;;;;;;;;;5022191;28;20113;-84
2022/07/17 06:46:12;;;;;;;8.07;2.13;;;;;;;;;;5021490;28;20418;-85
2022/07/17 06:48:37;;;;;;;5.78;1.85;;;;;;;;;;5003425;28;20052;-83
2022/07/17 06:51:02;;;;;;;4.55;2.13;;;;;;;;;;5005293;28;20081;-84
2022/07/17 06:53:28;;;;;;;12.70;4.47;;;;;;;;;;5020378;28;20033;-85
2022/07/17 06:55:53;;;;;;;5.70;2.78;;;;;;;;;;5020270;28;20489;-85
2022/07/17 06:58:18;;;;;;;7.72;2.10;;;;;;;;;;5017719;28;20404;-86
2022/07/17 07:00:43;;;;;;;5.43;2.30;;;;;;;;;;5015032;28;20083;-84
2022/07/17 07:03:09;;;;;;;4.40;1.92;;;;;;;;;;5000102;28;20685;-84
2022/07/17 07:05:34;;;;;;;2.40;1.60;;;;;;;;;;5020512;28;20548;-84
2022/07/17 07:07:59;;;;;;;3.42;1.60;;;;;;;;;;4997683;28;20050;-84
2022/07/17 07:10:24;;;;;;;11.63;2.42;;;;;;;;;;5015651;28;20108;-84
2022/07/17 07:12:50;;;;;;;9.57;1.88;;;;;;;;;;4999330;28;20040;-83
2022/07/17 07:15:15;;;;;;;6.63;2.17;;;;;;;;;;5001792;28;20043;-84
2022/07/17 07:17:40;;;;;;;10.30;2.35;;;;;;;;;;5002704;28;20457;-83
2022/07/17 07:20:06;;;;;;;7.55;1.98;;;;;;;;;;5003035;28;20402;-84
2022/07/17 07:22:32;;;;;;;5.50;1.67;;;;;;;;;;5005461;28;20018;-83
2022/07/17 07:24:57;;;;;;;4.85;1.98;;;;;;;;;;5001998;28;20113;-83
2022/07/17 07:27:22;;;;;;;3.72;1.60;;;;;;;;;;5003254;28;20022;-83
2022/07/17 07:29:47;;;;;;;7.85;1.70;;;;;;;;;;5017044;28;20050;-83
2022/07/17 07:32:13;;;;;;;5.75;1.80;;;;;;;;;;5019920;28;20025;-84
2022/07/17 07:34:38;;;;;;;5.68;1.70;;;;;;;;;;5005296;28;20026;-86
2022/07/17 07:37:03;;;;;;;4.18;1.75;;;;;;;;;;5003625;28;20029;-83
2022/07/17 07:39:29;;;;;;;3.33;1.60;;;;;;;;;;5002473;28;20029;-84
2022/07/17 07:41:55;;;;;;;14.55;2.00;;;;;;;;;;5004951;28;20493;-84
2022/07/17 07:44:20;;;;;;;6.07;2.17;;;;;;;;;;5005389;28;20037;-85
2022/07/17 07:46:45;;;;;;;7.18;1.90;;;;;;;;;;5017095;28;20034;-88
2022/07/17 07:49:11;;;;;;;6.43;2.65;;;;;;;;;;5006416;28;20098;-85
2022/07/17 07:51:36;;;;;;;4.07;1.83;;;;;;;;;;5005579;28;20049;-86
2022/07/17 07:54:01;;;;;;;8.70;3.23;;;;;;;;;;5009291;28;20398;-87
2022/07/17 07:56:30;;;;;;;8.40;2.50;;;;;;;;;;5000989;28;20279;-88
2022/07/17 07:58:58;;;;;;;7.78;2.22;;;;;;;;;;5026335;28;20014;-85
2022/07/17 08:01:23;;;;;;;3.20;1.52;;;;;;;;;;5009999;28;20057;-87
2022/07/17 08:03:48;;;;;;;8.30;2.28;;;;;;;;;;5028292;28;20044;-87
2022/07/17 08:06:14;;;;;;;9.52;2.97;;;;;;;;;;5009902;28;20132;-88
2022/07/17 08:08:39;;;;;;;3.15;1.45;;;;;;;;;;5010165;28;20042;-87
2022/07/17 08:11:05;;;;;;;14.35;2.85;;;;;;;;;;5013854;28;20084;-87
2022/07/17 08:13:33;;;;;;;7.90;2.78;;;;;;;;;;5024686;28;20060;-85
2022/07/17 08:15:58;;;;;;;2.67;1.50;;;;;;;;;;5011583;28;20030;-89
2022/07/17 08:18:25;;;;;;;5.38;1.73;;;;;;;;;;5028100;28;20033;-84
2022/07/17 08:20:50;;;;;;;6.40;1.52;;;;;;;;;;5012448;28;20030;-87
2022/07/17 08:23:16;;;;;;;3.47;1.50;;;;;;;;;;5014084;28;20030;-84
2022/07/17 08:25:41;;;;;;;6.90;1.38;;;;;;;;;;5014681;28;20025;-86
2022/07/17 08:28:06;;;;;;;7.20;1.95;;;;;;;;;;5030686;28;20371;-89
2022/07/17 08:30:34;;;;;;;8.00;2.22;;;;;;;;;;5010586;28;20204;-85
2022/07/17 08:32:59;;;;;;;3.13;1.50;;;;;;;;;;5010158;28;20036;-90
2022/07/17 08:35:25;;;;;;;11.60;1.65;;;;;;;;;;5012759;28;20034;-88
2022/07/17 08:37:51;;;;;;;6.65;1.65;;;;;;;;;;5015081;28;20023;-90
2022/07/17 08:40:25;;;;;;;5.07;2.50;;;;;;;;;;5010475;28;20794;-87
2022/07/17 08:42:51;;;;;;;5.40;1.50;;;;;;;;;;5026845;28;20541;-89
2022/07/17 08:45:16;;;;;;;8.32;1.80;;;;;;;;;;5007836;28;20117;-89
2022/07/17 08:47:42;;;;;;;2.95;1.20;;;;;;;;;;5009631;28;20029;-89
2022/07/17 08:50:08;;;;;;;4.43;1.45;;;;;;;;;;5035224;28;20145;-88
2022/07/17 08:52:36;;;;;;;5.38;1.73;;;;;;;;;;5005409;28;20026;-88
2022/07/17 08:55:01;;;;;;;6.35;1.67;;;;;;;;;;5013033;28;20492;-84
2022/07/17 08:57:26;;;;;;;11.05;2.35;;;;;;;;;;5009530;28;20026;-86
2022/07/17 08:59:52;;;;;;;5.85;1.77;;;;;;;;;;5010167;28;20022;-84
2022/07/17 09:02:18;;;;;;;5.22;2.08;;;;;;;;;;5022907;28;20073;-88
2022/07/17 09:04:53;;;;;;;4.80;1.90;;;;;;;;;;5012235;28;20029;-88
2022/07/17 09:07:18;;;;;;;4.80;1.73;;;;;;;;;;5015606;28;20041;-84
2022/07/17 09:09:49;;;;;;;2.55;1.30;;;;;;;;;;5015588;28;20109;-84
2022/07/17 09:12:14;;;;;;;2.75;1.25;;;;;;;;;;5025001;28;20121;-83
2022/07/17 09:14:41;;;;;;;7.22;1.73;;;;;;;;;;5011435;28;20125;-87
2022/07/17 09:17:08;;;;;;;5.03;1.60;;;;;;;;;;5012390;28;20026;-83
2022/07/17 09:19:34;;;;;;;5.13;1.75;;;;;;;;;;5027082;28;20750;-87
2022/07/17 09:22:19;;;;;;;5.93;1.85;;;;;;;;;;5009191;28;20030;-84
2022/07/17 09:24:55;;;;;;;3.67;1.48;;;;;;;;;;5028965;28;20369;-87
2022/07/17 09:27:23;;;;;;;6.32;1.67;;;;;;;;;;5029008;28;20115;-89
2022/07/17 09:29:55;;;;;;;2.55;1.50;;;;;;;;;;5033526;28;20037;-89
2022/07/17 09:32:21;;;;;;;5.80;1.70;;;;;;;;;;5033171;28;20075;-89
2022/07/17 09:34:51;;;;;;;2.50;1.98;;;;;;;;;;5026658;28;20033;-88
2022/07/17 09:37:16;;;;;;;2.63;1.20;;;;;;;;;;5010996;28;20065;-85
2022/07/17 09:39:44;;;;;;;5.03;1.50;;;;;;;;;;5033576;28;20057;-85
2022/07/17 09:42:20;;;;;;;4.78;1.33;;;;;;;;;;5016218;28;20040;-84
2022/07/17 09:44:59;;;;;;;6.90;2.15;;;;;;;;;;5044438;28;20092;-84
2022/07/17 09:47:25;;;;;;;6.53;1.80;;;;;;;;;;5020819;28;20029;-84
2022/07/17 09:49:54;;;;;;;3.63;1.40;;;;;;;;;;5019210;28;20424;-84
2022/07/17 09:52:23;;;;;;;3.15;1.30;;;;;;;;;;5024357;28;20549;-89
2022/07/17 09:54:51;;;;;;;4.68;1.60;;;;;;;;;;5021243;28;20109;-84
2022/07/17 09:57:16;;;;;;;7.18;2.30;;;;;;;;;;5028975;28;20052;-83
2022/07/17 09:59:42;;;;;;;2.90;1.73;;;;;;;;;;5035331;28;20029;-89
2022/07/17 10:02:08;;;;;;;5.95;1.50;;;;;;;;;;5012693;28;20075;-84
2022/07/17 10:04:35;;;;;;;4.82;1.63;;;;;;;;;;5032579;28;20049;-84
2022/07/17 10:07:00;;;;;;;6.80;2.17;;;;;;;;;;5033552;28;20509;-89
2022/07/17 10:09:25;;;;;;;5.28;1.58;;;;;;;;;;5033550;28;20037;-88
2022/07/17 10:11:54;;;;;;;3.20;1.58;;;;;;;;;;5015246;28;20435;-88
2022/07/17 10:14:19;;;;;;;3.85;1.80;;;;;;;;;;5037118;28;20052;-89
2022/07/17 10:16:45;;;;;;;2.88;1.48;;;;;;;;;;5034572;28;20053;-83
2022/07/17 10:19:20;;;;;;;3.15;1.70;;;;;;;;;;5032350;28;20037;-88
2022/07/17 10:21:56;;;;;;;9.65;2.90;;;;;;;;;;5032230;28;20021;-88
2022/07/17 10:24:25;;;;;;;3.58;1.55;;;;;;;;;;5017181;28;20024;-83
2022/07/17 10:26:51;;;;;;;2.65;1.77;;;;;;;;;;5033181;28;20135;-88
2022/07/17 10:29:28;;;;;;;2.45;1.25;;;;;;;;;;5016123;28;20518;-83
2022/07/17 10:31:54;;;;;;;4.78;2.10;;;;;;;;;;5009066;28;20144;-83
2022/07/17 10:34:35;;;;;;;7.43;1.45;;;;;;;;;;5028919;28;20112;-85
2022/07/17 10:37:00;;;;;;;4.47;1.83;;;;;;;;;;5007971;28;20508;-83
2022/07/17 10:39:26;;;;;;;3.38;1.70;;;;;;;;;;5011480;28;20030;-83
2022/07/17 10:41:56;;;;;;;4.60;1.52;;;;;;;;;;5015205;28;20371;-83
2022/07/17 10:44:29;;;;;;;5.03;1.25;;;;;;;;;;5041647;28;20419;-83
2022/07/17 10:46:55;;;;;;;4.30;1.80;;;;;;;;;;5031625;28;20034;-84
2022/07/17 10:49:20;;;;;;;5.95;1.55;;;;;;;;;;5027860;28;20032;-84
2022/07/17 10:51:46;;;;;;;10.32;2.50;;;;;;;;;;5040225;28;20037;-83
2022/07/17 10:54:11;;;;;;;6.63;2.55;;;;;;;;;;5035698;28;20033;-83
2022/07/17 10:56:40;;;;;;;3.47;1.40;;;;;;;;;;5032525;28;20033;-83
2022/07/17 10:59:05;;;;;;;6.97;2.00;;;;;;;;;;5012790;28;20385;-84
2022/07/17 11:01:30;;;;;;;4.72;1.58;;;;;;;;;;5027742;28;20025;-83
2022/07/17 11:04:00;;;;;;;2.30;1.48;;;;;;;;;;5030859;28;20130;-83
2022/07/17 11:06:30;;;;;;;3.65;1.50;;;;;;;;;;5026560;28;20695;-83
2022/07/17 11:09:00;;;;;;;4.05;1.67;;;;;;;;;;5023164;28;20032;-84
2022/07/17 11:11:36;;;;;;;5.78;2.28;;;;;;;;;;5026878;28;20501;-84
2022/07/17 11:14:08;;;;;;;3.75;1.67;;;;;;;;;;5029329;28;20060;-84
2022/07/17 11:16:34;;;;;;;2.13;1.40;;;;;;;;;;5030822;28;20769;-83
2022/07/17 11:18:59;;;;;;;4.32;1.60;;;;;;;;;;5028807;28;20289;-84
2022/07/17 11:21:24;;;;;;;3.22;1.95;;;;;;;;;;5022155;28;20018;-83
2022/07/17 11:23:56;;;;;;;3.40;1.52;;;;;;;;;;5026617;28;20684;-83
2022/07/17 11:26:22;;;;;;;8.98;2.45;;;;;;;;;;5025256;28;20025;-82
2022/07/17 11:28:47;;;;;;;3.90;1.60;;;;;;;;;;5028393;28;20098;-84
2022/07/17 11:31:20;;;;;;;5.85;2.22;;;;;;;;;;5012262;28;20036;-83
2022/07/17 11:33:53;;;;;;;4.80;1.83;;;;;;;;;;5026406;28;20042;-85
2022/07/17 11:36:37;;;;;;;3.80;1.83;;;;;;;;;;5012837;28;20371;-83
2022/07/17 11:39:10;;;;;;;6.45;1.80;;;;;;;;;;5006042;28;20030;-84
2022/07/17 11:41:40;;;;;;;4.78;2.00;;;;;;;;;;5022382;28;20868;-82
2022/07/17 11:44:07;;;;;;;3.08;1.60;;;;;;;;;;5007500;28;20022;-82
2022/07/17 11:46:33;;;;;;;3.75;1.63;;;;;;;;;;5000996;28;20030;-83
2022/07/17 11:48:58;;;;;;;6.80;2.78;;;;;;;;;;5019014;28;20063;-83
2022/07/17 11:51:56;;;;;;;4.15;1.70;;;;;;;;;;5006244;28;20029;-83
2022/07/17 11:54:22;;;;;;;6.70;2.20;;;;;;;;;;4977080;28;20033;-83
2022/07/17 11:56:52;;;;;;;4.53;2.00;;;;;;;;;;5006107;28;20044;-82
2022/07/17 11:59:23;;;;;;;3.58;1.65;;;;;;;;;;5007098;28;21226;-83
2022/07/17 12:01:48;;;;;;;3.70;2.40;;;;;;;;;;5010104;28;20121;-82
2022/07/17 12:04:14;;;;;;;6.20;2.10;;;;;;;;;;5027188;28;20172;-84
2022/07/17 12:06:39;;;;;;;4.80;1.80;;;;;;;;;;5028282;28;21941;-84
2022/07/17 12:09:05;;;;;;;7.10;2.05;;;;;;;;;;5027101;28;20362;-84
2022/07/17 12:11:30;;;;;;;4.38;1.77;;;;;;;;;;5010932;28;20441;-82
2022/07/17 12:14:03;;;;;;;5.57;2.00;;;;;;;;;;5008596;28;20068;-83
2022/07/17 12:16:29;;;;;;;2.75;1.98;;;;;;;;;;5029980;28;20044;-83
2022/07/17 12:19:20;;;;;;;2.90;1.63;;;;;;;;;;5030530;28;20036;-83
2022/07/17 12:21:54;;;;;;;2.75;1.55;;;;;;;;;;5004219;28;20032;-82
2022/07/17 12:24:43;;;;;;;3.35;1.90;;;;;;;;;;5031099;28;20032;-82
2022/07/17 12:27:15;;;;;;;3.95;1.83;;;;;;;;;;5021763;28;20080;-82
2022/07/17 12:29:41;;;;;;;3.95;2.00;;;;;;;;;;5013515;28;20038;-82
2022/07/17 12:32:10;;;;;;;4.22;1.95;;;;;;;;;;5023472;28;20128;-83
2022/07/17 12:34:36;;;;;;;5.43;2.97;;;;;;;;;;5011129;28;20176;-83
2022/07/17 12:37:02;;;;;;;8.80;2.85;;;;;;;;;;5029336;28;20501;-84
2022/07/17 12:39:27;;;;;;;6.63;2.20;;;;;;;;;;5010600;28;20030;-82
2022/07/17 12:41:55;;;;;;;5.43;2.70;;;;;;;;;;5000441;28;20033;-83
2022/07/17 12:44:20;;;;;;;7.05;2.53;;;;;;;;;;5024855;28;20507;-83
2022/07/17 12:46:49;;;;;;;4.72;2.25;;;;;;;;;;5022220;28;20025;-82
2022/07/17 12:49:14;;;;;;;6.25;2.60;;;;;;;;;;5014533;28;20044;-79
2022/07/17 12:51:39;;;;;;;4.57;2.25;;;;;;;;;;5011735;28;20029;-80
2022/07/17 12:54:05;;;;;;;5.50;2.22;;;;;;;;;;5007764;28;20618;-81
2022/07/17 12:56:30;;;;;;;7.25;2.55;;;;;;;;;;5023237;28;20040;-81
2022/07/17 12:58:56;;;;;;;8.82;2.13;;;;;;;;;;5021030;28;20022;-84
2022/07/17 13:01:21;;;;;;;8.27;2.13;;;;;;;;;;5022754;28;20033;-84
2022/07/17 13:03:46;;;;;;;6.80;1.98;;;;;;;;;;5002673;28;20496;-86
2022/07/17 13:06:12;;;;;;;4.25;2.17;;;;;;;;;;5005888;28;20131;-85
2022/07/17 13:08:37;;;;;;;27.58;4.32;;;;;;;;;;5027028;28;20102;-86
2022/07/17 13:11:03;;;;;;;6.63;2.40;;;;;;;;;;5008642;28;20465;-85
2022/07/17 13:13:32;;;;;;;6.38;2.30;;;;;;;;;;5003752;28;20044;-87
2022/07/17 13:15:57;;;;;;;8.52;2.47;;;;;;;;;;5023628;28;20040;-86
2022/07/17 13:18:23;;;;;;;3.60;2.17;;;;;;;;;;5005249;28;20033;-89
2022/07/17 13:20:48;;;;;;;4.50;2.30;;;;;;;;;;5012471;28;20108;-85
2022/07/17 13:23:13;;;;;;;5.70;2.92;;;;;;;;;;5027982;28;20025;-86
2022/07/17 13:25:39;;;;;;;5.07;2.65;;;;;;;;;;5027892;28;20466;-85
2022/07/17 13:28:04;;;;;;;5.30;2.63;;;;;;;;;;5029926;28;20025;-85
2022/07/17 13:30:30;;;;;;;4.72;2.47;;;;;;;;;;5033527;28;20083;-86
2022/07/17 13:32:55;;;;;;;5.03;2.45;;;;;;;;;;5010545;28;20038;-85
2022/07/17 13:35:22;;;;;;;5.13;2.67;;;;;;;;;;5009597;28;20558;-89
2022/07/17 13:37:47;;;;;;;5.63;2.53;;;;;;;;;;5010834;28;20528;-82
2022/07/17 13:40:13;;;;;;;7.00;2.70;;;;;;;;;;5021510;28;20021;-85
2022/07/17 13:42:38;;;;;;;6.93;2.97;;;;;;;;;;5029912;28;20029;-79
2022/07/17 13:45:04;;;;;;;4.80;2.63;;;;;;;;;;5024829;28;20108;-85
2022/07/17 13:47:29;;;;;;;3.45;2.50;;;;;;;;;;5025915;28;20048;-80
2022/07/17 13:49:55;;;;;;;5.00;2.80;;;;;;;;;;5025986;28;20457;-80
2022/07/17 13:52:20;;;;;;;8.65;3.28;;;;;;;;;;5022916;28;20431;-82
2022/07/17 13:54:45;;;;;;;4.47;3.08;;;;;;;;;;5024736;28;20025;-80
2022/07/17 13:57:10;;;;;;;6.40;2.70;;;;;;;;;;5023566;28;20030;-84
2022/07/17 13:59:36;;;;;;;5.80;3.22;;;;;;;;;;5027542;28;20290;-82
2022/07/17 14:02:01;;;;;;;6.28;2.70;;;;;;;;;;5022305;28;20030;-83
2022/07/17 14:04:26;;;;;;;4.00;2.47;;;;;;;;;;5020284;28;20014;-82
2022/07/17 14:06:51;;;;;;;5.35;2.97;;;;;;;;;;5023266;28;20673;-81
2022/07/17 14:09:17;;;;;;;6.40;2.80;;;;;;;;;;5007685;28;20465;-83
2022/07/17 14:11:42;;;;;;;5.70;2.67;;;;;;;;;;5021533;28;20426;-83
2022/07/17 14:14:07;;;;;;;7.15;3.22;;;;;;;;;;5004608;28;20038;-82
2022/07/17 14:16:33;;;;;;;4.47;3.13;;;;;;;;;;5024487;28;20104;-84
2022/07/17 14:18:58;;;;;;;6.20;3.08;;;;;;;;;;5025262;28;20025;-80
2022/07/17 14:21:33;;;;;;;3.83;2.65;;;;;;;;;;5021447;28;20079;-80
2022/07/17 14:23:59;;;;;;;6.40;3.63;;;;;;;;;;5024057;28;20017;-85
2022/07/17 14:26:24;;;;;;;5.40;3.50;;;;;;;;;;5023723;28;20029;-85
2022/07/17 14:28:49;;;;;;;6.55;3.15;;;;;;;;;;5028022;28;20095;-84
2022/07/17 14:31:16;;;;;;;6.70;3.40;;;;;;;;;;5019542;28;20098;-85
2022/07/17 14:33:41;;;;;;;6.30;3.20;;;;;;;;;;5003088;28;20332;-82
2022/07/17 14:36:06;;;;;;;5.90;3.28;;;;;;;;;;5020796;28;20637;-81
2022/07/17 14:38:32;;;;;;;6.72;3.22;;;;;;;;;;5022811;28;20061;-83
2022/07/17 14:40:57;;;;;;;6.20;3.53;;;;;;;;;;5020564;28;20108;-82